Harg, Missouri
Current Conditions -  °F | °C
As of 8:00 AM on Monday 20 Oct 2014 (Local Time) from KCOU Reporting Station
Clear Clear  
Wind Chill: 53°   Ceiling: Unl
Heat Index: 53°   Visibility: 8mi
Dew Point: 51°   Wind: 8mph
Humidity: 93%   Direction: 270°W
Pressure: 29.99"   Gusts: NA
Location:  38.8994°N, 92.2391°W
Report Text: KCOU 201300Z 27007KT 8SM CLR 12/11 A2999 RMK AO2 T01170106
Loading
Personal Weather Stations






























Interactive Weather Map
Tropical Storm Tracking
New forecast layout! Learn more

10-Day Weather Forecast

Advertisements
Track Severe Weather on mobile